Time;durP1;ratioP1;P1;durP2;ratioP2;P2;SDS_P1;SDS_P2;PMS_P1;PMS_P2;Temp;Humidity;BMP_temperature;BMP_pressure;BME280_temperature;BME280_humidity;BME280_pressure;Samples;Min_cycle;Max_cycle;Signal;HPM_P1;HPM_P2
2023/07/09 00:00:24;;;;;;;5.63;2.15;;;;;;;16.34;100.00;98271.19;5140896;28;20058;-58
2023/07/09 00:02:50;;;;;;;2.25;1.92;;;;;;;16.27;100.00;98272.09;5140471;28;20059;-52
2023/07/09 00:05:17;;;;;;;2.33;1.95;;;;;;;16.26;100.00;98267.78;5140763;28;20054;-54
2023/07/09 00:07:45;;;;;;;5.32;2.20;;;;;;;16.18;100.00;98271.88;5140445;28;20103;-53
2023/07/09 00:10:17;;;;;;;2.53;2.08;;;;;;;16.16;100.00;98277.03;5140749;28;20062;-51
2023/07/09 00:12:44;;;;;;;1.83;1.73;;;;;;;16.07;100.00;98269.31;5140439;28;20119;-58
2023/07/09 00:15:11;;;;;;;2.72;2.20;;;;;;;16.13;100.00;98269.63;5140263;27;20051;-55
2023/07/09 00:17:39;;;;;;;2.25;2.03;;;;;;;16.10;100.00;98267.69;5140203;28;20329;-57
2023/07/09 00:20:11;;;;;;;2.13;1.90;;;;;;;16.09;100.00;98268.88;5140516;28;20051;-59
2023/07/09 00:22:38;;;;;;;2.03;1.80;;;;;;;16.04;100.00;98277.69;5140367;28;20090;-53
2023/07/09 00:25:05;;;;;;;5.18;1.83;;;;;;;16.09;100.00;98274.41;5140264;28;20047;-51
2023/07/09 00:27:32;;;;;;;4.07;2.72;;;;;;;16.05;100.00;98276.47;5140282;27;20062;-58
2023/07/09 00:29:58;;;;;;;2.60;2.03;;;;;;;16.05;100.00;98282.00;5140189;28;20314;-54
2023/07/09 00:32:25;;;;;;;3.25;2.40;;;;;;;16.05;100.00;98290.28;5140491;28;20429;-54
2023/07/09 00:34:53;;;;;;;5.60;2.70;;;;;;;16.09;100.00;98282.72;5139947;27;20413;-59
2023/07/09 00:37:22;;;;;;;4.40;2.30;;;;;;;16.09;100.00;98277.19;5140308;28;20097;-57
2023/07/09 00:39:48;;;;;;;2.42;2.20;;;;;;;16.07;100.00;98285.13;5139882;27;20051;-54
2023/07/09 00:42:17;;;;;;;4.40;2.00;;;;;;;16.02;100.00;98297.44;5140363;28;20093;-53
2023/07/09 00:44:45;;;;;;;2.58;1.83;;;;;;;15.84;100.00;98308.03;5139835;28;20394;-57
2023/07/09 00:47:28;;;;;;;6.13;2.17;;;;;;;15.88;100.00;98311.53;5139620;28;20082;-57
2023/07/09 00:50:03;;;;;;;8.20;2.78;;;;;;;15.81;100.00;98329.00;5140151;28;20061;-55
2023/07/09 00:52:35;;;;;;;3.90;2.45;;;;;;;15.81;100.00;98340.06;5139878;28;20050;-55
2023/07/09 00:55:06;;;;;;;3.53;2.45;;;;;;;15.62;100.00;98349.00;5140205;27;20055;-54
2023/07/09 00:57:33;;;;;;;4.32;2.40;;;;;;;15.64;100.00;98368.72;5139784;28;20138;-55
2023/07/09 01:00:09;;;;;;;3.72;2.05;;;;;;;15.72;100.00;98359.94;5140097;28;20046;-56
2023/07/09 01:02:35;;;;;;;5.88;2.53;;;;;;;15.72;100.00;98359.94;5139562;28;20133;-53
2023/07/09 01:05:02;;;;;;;3.75;2.40;;;;;;;15.67;100.00;98376.22;5138890;27;20047;-58
2023/07/09 01:07:29;;;;;;;5.63;2.42;;;;;;;15.81;100.00;98367.69;5139696;28;20043;-52
2023/07/09 01:09:56;;;;;;;3.95;2.33;;;;;;;15.77;100.00;98372.50;5139445;28;20050;-56
2023/07/09 01:12:23;;;;;;;4.25;2.30;;;;;;;15.85;100.00;98359.34;5139319;28;20128;-58
2023/07/09 01:14:51;;;;;;;3.17;2.20;;;;;;;15.83;100.00;98353.44;5139497;28;20071;-55
2023/07/09 01:17:18;;;;;;;4.07;2.15;;;;;;;15.53;100.00;98357.84;5139610;28;20051;-53
2023/07/09 01:19:49;;;;;;;2.47;2.22;;;;;;;15.73;100.00;98396.66;5139456;28;20062;-52
2023/07/09 01:22:18;;;;;;;3.10;2.10;;;;;;;15.75;100.00;98378.44;5139176;27;20058;-56
2023/07/09 01:24:54;;;;;;;2.60;2.10;;;;;;;15.80;100.00;98374.44;5139270;28;20096;-57
2023/07/09 01:27:23;;;;;;;6.30;2.42;;;;;;;15.66;100.00;98380.13;5139591;27;20054;-57
2023/07/09 01:29:49;;;;;;;3.30;2.33;;;;;;;15.73;100.00;98400.19;5139395;28;20054;-53
2023/07/09 01:32:18;;;;;;;2.67;2.28;;;;;;;15.74;100.00;98406.50;5139286;27;20057;-55
2023/07/09 01:34:47;;;;;;;5.40;2.20;;;;;;;15.65;100.00;98431.06;5139314;28;20047;-53
2023/07/09 01:37:14;;;;;;;2.75;2.08;;;;;;;15.61;100.00;98430.34;5138880;27;20050;-58
2023/07/09 01:39:41;;;;;;;3.88;1.83;;;;;;;15.53;100.00;98457.28;5139320;28;20055;-55
2023/07/09 01:42:08;;;;;;;5.50;2.47;;;;;;;15.50;100.00;98458.91;5139170;28;20062;-58
2023/07/09 01:44:35;;;;;;;2.75;2.00;;;;;;;15.51;100.00;98499.13;5139220;28;20047;-51
2023/07/09 01:47:04;;;;;;;3.05;2.35;;;;;;;15.43;100.00;98507.94;5138845;28;20051;-57
2023/07/09 01:49:32;;;;;;;3.08;2.00;;;;;;;15.40;100.00;98536.38;5139354;28;20095;-55
2023/07/09 01:52:00;;;;;;;2.85;2.25;;;;;;;15.31;100.00;98564.47;5138772;28;20146;-55
2023/07/09 01:54:26;;;;;;;3.92;2.35;;;;;;;15.42;100.00;98575.41;5139195;28;20053;-55
2023/07/09 01:56:56;;;;;;;5.55;1.83;;;;;;;15.38;100.00;98574.66;5138922;28;20118;-54
2023/07/09 01:59:22;;;;;;;3.10;2.05;;;;;;;15.37;100.00;98607.03;5138944;28;20055;-57
2023/07/09 02:01:49;;;;;;;4.78;2.30;;;;;;;15.36;100.00;98629.53;5139003;27;20370;-54
2023/07/09 02:04:17;;;;;;;4.72;2.83;;;;;;;15.37;100.00;98648.47;5138757;28;20110;-56
2023/07/09 02:06:43;;;;;;;2.85;2.20;;;;;;;15.35;100.00;98656.34;5138801;28;20337;-52
2023/07/09 02:09:09;;;;;;;5.95;2.20;;;;;;;15.38;100.00;98654.75;5138467;28;20146;-52
2023/07/09 02:11:35;;;;;;;6.40;2.22;;;;;;;15.38;100.00;98672.13;5138797;28;20046;-51
2023/07/09 02:14:02;;;;;;;4.45;2.90;;;;;;;15.25;100.00;98723.50;5138392;28;20047;-57
2023/07/09 02:16:28;;;;;;;4.13;2.55;;;;;;;15.23;100.00;98736.97;5138757;27;20152;-55
2023/07/09 02:18:53;;;;;;;4.18;3.33;;;;;;;15.22;100.00;98774.81;5138374;27;20070;-57
2023/07/09 02:21:19;;;;;;;4.10;3.08;;;;;;;15.23;100.00;98790.22;5138850;27;20062;-58
2023/07/09 02:23:45;;;;;;;4.28;2.35;;;;;;;15.30;100.00;98805.94;5138189;28;20047;-59
2023/07/09 02:26:11;;;;;;;6.95;2.13;;;;;;;15.47;100.00;98802.25;5138308;28;20089;-59
2023/07/09 02:28:37;;;;;;;4.28;2.50;;;;;;;15.32;100.00;98781.44;5138237;27;20086;-58
2023/07/09 02:31:03;;;;;;;4.72;2.60;;;;;;;15.93;100.00;98743.06;5138374;28;20047;-58
2023/07/09 02:33:32;;;;;;;4.05;2.00;;;;;;;16.40;100.00;98590.38;5138428;28;20051;-58
2023/07/09 02:35:58;;;;;;;9.55;2.53;;;;;;;16.84;100.00;98445.34;5138083;28;20142;-58
2023/07/09 02:38:24;;;;;;;4.05;2.50;;;;;;;17.16;100.00;98349.78;5138404;28;20062;-58
2023/07/09 02:40:50;;;;;;;7.50;2.20;;;;;;;17.55;100.00;98310.09;5137917;28;20047;-59
2023/07/09 02:43:16;;;;;;;6.28;2.50;;;;;;;17.78;100.00;98303.63;5138376;28;20046;-58
2023/07/09 02:45:42;;;;;;;5.72;2.97;;;;;;;18.15;100.00;98312.59;5137816;28;20417;-58
2023/07/09 02:48:08;;;;;;;2.85;2.38;;;;;;;18.46;100.00;98340.72;5138363;28;20150;-55
2023/07/09 02:50:34;;;;;;;5.72;2.63;;;;;;;18.55;100.00;98365.03;5137923;28;20043;-58
2023/07/09 02:53:00;;;;;;;6.43;2.53;;;;;;;18.72;100.00;98369.34;5138276;28;20421;-56
2023/07/09 02:55:26;;;;;;;4.93;2.03;;;;;;;18.98;100.00;98411.88;5138053;28;20138;-55
2023/07/09 02:57:52;;;;;;;3.30;2.50;;;;;;;19.20;100.00;98464.84;5137931;28;20144;-53
2023/07/09 03:00:18;;;;;;;5.32;2.75;;;;;;;19.27;100.00;98478.53;5137790;27;20395;-55
2023/07/09 03:02:44;;;;;;;2.35;2.15;;;;;;;19.49;100.00;98516.81;5137869;28;20195;-60
2023/07/09 03:05:11;;;;;;;4.53;2.30;;;;;;;19.51;100.00;98534.63;5137974;28;20100;-58
2023/07/09 03:07:36;;;;;;;5.68;2.28;;;;;;;19.74;100.00;98560.63;5137440;28;20332;-59
2023/07/09 03:10:03;;;;;;;3.10;2.20;;;;;;;19.75;100.00;98596.31;5137842;28;20138;-58
2023/07/09 03:12:29;;;;;;;8.23;2.33;;;;;;;20.07;100.00;98597.41;5137477;28;20133;-55
2023/07/09 03:14:55;;;;;;;2.72;2.15;;;;;;;20.54;100.00;98677.56;5137917;28;20085;-56
2023/07/09 03:17:21;;;;;;;2.90;2.20;;;;;;;20.77;100.00;98714.69;5137400;28;20063;-57
2023/07/09 03:19:46;;;;;;;3.30;2.30;;;;;;;21.08;100.00;98762.28;5137937;28;20221;-59
2023/07/09 03:22:13;;;;;;;3.72;2.33;;;;;;;21.22;100.00;98761.81;5137306;28;20134;-58
2023/07/09 03:24:39;;;;;;;4.88;2.45;;;;;;;21.43;100.00;98793.84;5137589;28;20047;-59
2023/07/09 03:27:06;;;;;;;3.83;2.35;;;;;;;21.36;100.00;98813.59;5137253;27;20408;-59
2023/07/09 03:29:32;;;;;;;2.78;2.05;;;;;;;21.54;100.00;98815.81;5137236;28;20047;-51
2023/07/09 03:31:58;;;;;;;3.80;2.42;;;;;;;21.87;100.00;98849.81;5137575;28;20058;-52
2023/07/09 03:34:24;;;;;;;5.03;2.05;;;;;;;21.71;100.00;98830.41;5137193;28;20429;-56
2023/07/09 03:36:50;;;;;;;3.65;2.10;;;;;;;21.83;100.00;98854.72;5137504;27;20140;-57
2023/07/09 03:39:16;;;;;;;4.13;2.30;;;;;;;21.95;100.00;98872.66;5137169;28;20047;-59
2023/07/09 03:41:42;;;;;;;3.72;2.80;;;;;;;22.58;100.00;98888.50;5137563;28;20371;-57
2023/07/09 03:44:08;;;;;;;3.75;2.15;;;;;;;22.38;100.00;98899.97;5137031;28;20091;-57
2023/07/09 03:46:34;;;;;;;2.97;2.28;;;;;;;22.70;100.00;98910.03;5137501;27;20142;-59
2023/07/09 03:49:00;;;;;;;2.53;2.33;;;;;;;22.81;100.00;98903.25;5136994;27;20142;-58
2023/07/09 03:51:26;;;;;;;3.08;2.35;;;;;;;23.27;100.00;98915.56;5137478;28;20047;-51
2023/07/09 03:53:52;;;;;;;3.30;2.28;;;;;;;23.29;100.00;98934.66;5136963;28;20409;-57
2023/07/09 03:56:18;;;;;;;3.65;2.20;;;;;;;23.36;100.00;98951.97;5137126;28;20150;-57
2023/07/09 03:58:44;;;;;;;3.85;2.17;;;;;;;23.01;100.00;98917.72;5137259;28;20137;-57
2023/07/09 04:01:10;;;;;;;5.28;2.47;;;;;;;23.29;100.00;98946.63;5137019;28;20085;-60
2023/07/09 04:03:36;;;;;;;3.85;2.00;;;;;;;23.40;100.00;98952.63;5137214;28;20362;-61
2023/07/09 04:06:02;;;;;;;2.58;2.00;;;;;;;23.15;100.00;98955.56;5136636;28;20142;-60
2023/07/09 04:08:28;;;;;;;5.15;2.33;;;;;;;23.04;100.00;98941.97;5137171;27;20142;-58
2023/07/09 04:10:56;;;;;;;2.78;1.88;;;;;;;23.69;100.00;98963.53;5136938;28;20051;-54
2023/07/09 04:13:22;;;;;;;2.45;2.25;;;;;;;23.83;100.00;98975.41;5137187;28;20143;-57
2023/07/09 04:15:49;;;;;;;3.33;2.20;;;;;;;23.82;100.00;98968.25;5136713;28;20055;-57
2023/07/09 04:18:15;;;;;;;3.63;2.38;;;;;;;24.06;100.00;98979.69;5137150;28;20043;-60
2023/07/09 04:20:41;;;;;;;2.30;2.10;;;;;;;24.68;100.00;98996.38;5136561;28;20149;-59
2023/07/09 04:23:09;;;;;;;3.25;2.20;;;;;;;24.53;100.00;98995.44;5136854;28;20043;-57
2023/07/09 04:25:35;;;;;;;3.03;1.80;;;;;;;24.55;100.00;99001.34;5136566;28;20393;-59
2023/07/09 04:28:01;;;;;;;5.47;1.75;;;;;;;24.49;100.00;99003.19;5136722;28;20089;-58
2023/07/09 04:30:27;;;;;;;2.10;1.80;;;;;;;24.61;100.00;99016.31;5136813;28;20162;-60
2023/07/09 04:32:53;;;;;;;6.40;1.70;;;;;;;25.03;100.00;99022.13;5136651;28;20051;-59
2023/07/09 04:35:19;;;;;;;5.05;2.20;;;;;;;25.07;100.00;99019.16;5136791;27;20043;-60
2023/07/09 04:37:45;;;;;;;3.83;2.30;;;;;;;25.56;100.00;99030.22;5136402;27;20134;-59
2023/07/09 04:40:12;;;;;;;4.38;2.10;;;;;;;25.30;100.00;99037.41;5137942;27;20129;-56
2023/07/09 04:42:39;;;;;;;2.63;2.03;;;;;;;25.28;100.00;99035.06;5139966;28;20055;-60
2023/07/09 04:45:09;;;;;;;2.30;1.92;;;;;;;24.56;100.00;99020.50;5140295;27;20413;-59
2023/07/09 04:47:35;;;;;;;2.90;2.08;;;;;;;25.37;100.00;99034.28;5139787;28;20120;-52
2023/07/09 04:50:03;;;;;;;3.58;2.00;;;;;;;25.68;100.00;99039.69;5140303;28;20058;-58
2023/07/09 04:52:30;;;;;;;3.63;2.03;;;;;;;25.55;100.00;99036.28;5139767;28;20086;-59
2023/07/09 04:54:56;;;;;;;2.20;2.00;;;;;;;26.13;96.85;99042.88;5139680;28;20146;-56
2023/07/09 04:57:22;;;;;;;5.30;2.28;;;;;;;26.19;97.64;99050.19;5139968;28;20142;-52
2023/07/09 04:59:49;;;;;;;5.85;2.33;;;;;;;26.56;93.81;99054.84;5139776;28;20340;-59
2023/07/09 05:02:15;;;;;;;3.05;1.90;;;;;;;26.80;89.95;99061.28;5139797;28;20108;-54
2023/07/09 05:04:41;;;;;;;2.63;2.10;;;;;;;27.00;88.93;99069.13;5139675;28;20055;-54
2023/07/09 05:07:07;;;;;;;4.82;2.40;;;;;;;27.43;87.16;99081.78;5139850;28;20061;-53
2023/07/09 05:09:33;;;;;;;2.83;2.20;;;;;;;27.24;86.48;99079.63;5139734;28;20047;-51
2023/07/09 05:11:59;;;;;;;3.20;2.40;;;;;;;27.10;87.43;99075.47;5139851;28;20051;-51
2023/07/09 05:14:26;;;;;;;2.33;2.10;;;;;;;27.08;87.77;99083.59;5139403;28;20061;-57
2023/07/09 05:16:53;;;;;;;5.10;2.65;;;;;;;26.75;90.09;99071.16;5139854;28;20073;-58
2023/07/09 05:19:19;;;;;;;4.40;2.33;;;;;;;26.57;92.95;99062.84;5139200;27;20191;-56
2023/07/09 05:21:45;;;;;;;5.30;2.17;;;;;;;26.56;92.47;99072.53;5139215;28;20495;-51
2023/07/09 05:24:11;;;;;;;4.28;2.35;;;;;;;27.15;88.82;99066.38;5139411;28;20050;-53
2023/07/09 05:26:37;;;;;;;3.25;2.42;;;;;;;26.97;86.71;99072.91;5139357;27;20051;-50
2023/07/09 05:29:04;;;;;;;3.70;2.60;;;;;;;26.70;89.88;99065.41;5139420;27;20047;-51
2023/07/09 05:31:30;;;;;;;6.97;2.75;;;;;;;26.81;91.40;99067.69;5139189;28;20115;-56
2023/07/09 05:33:57;;;;;;;4.93;2.40;;;;;;;26.86;88.71;99064.22;5139336;28;20051;-57
2023/07/09 05:36:23;;;;;;;6.25;2.28;;;;;;;27.62;85.30;99076.78;5139080;28;20087;-57
2023/07/09 05:38:50;;;;;;;6.75;2.20;;;;;;;27.09;88.32;99063.44;5139349;27;20418;-54
2023/07/09 05:41:16;;;;;;;2.70;2.25;;;;;;;27.98;82.08;99074.09;5138911;28;20055;-51
2023/07/09 05:43:43;;;;;;;2.75;1.90;;;;;;;27.87;80.74;99086.72;5139367;28;20047;-52
2023/07/09 05:46:09;;;;;;;3.53;2.20;;;;;;;28.36;77.76;99082.41;5138800;28;20146;-52
2023/07/09 05:48:34;;;;;;;3.60;2.47;;;;;;;28.80;75.82;99092.81;5139310;28;20047;-50
2023/07/09 05:51:00;;;;;;;2.92;2.05;;;;;;;28.23;75.70;99087.59;5138521;27;20138;-50
2023/07/09 05:53:26;;;;;;;2.53;1.95;;;;;;;28.08;73.64;99086.81;5138715;28;20059;-51
2023/07/09 05:55:54;;;;;;;3.17;1.50;;;;;;;28.30;73.65;99089.22;5138749;28;20047;-54
2023/07/09 05:58:20;;;;;;;4.68;1.40;;;;;;;28.55;70.00;99097.06;5138339;28;20051;-54
2023/07/09 06:00:46;;;;;;;1.73;1.45;;;;;;;28.25;69.36;99095.53;5138754;28;20108;-57
2023/07/09 06:03:12;;;;;;;3.08;1.40;;;;;;;28.33;69.73;99099.53;5138490;28;20436;-55
2023/07/09 06:05:38;;;;;;;1.50;1.40;;;;;;;28.22;69.71;99090.88;5138687;28;20086;-54
2023/07/09 06:08:04;;;;;;;2.47;1.52;;;;;;;28.27;70.71;99090.97;5138436;27;20134;-53
2023/07/09 06:10:30;;;;;;;2.38;1.70;;;;;;;27.99;72.54;99087.72;5138787;28;20069;-57
2023/07/09 06:12:58;;;;;;;3.08;1.63;;;;;;;28.26;72.03;99083.03;5138326;28;20107;-51
2023/07/09 06:15:24;;;;;;;2.83;1.60;;;;;;;28.78;69.12;99078.41;5138888;28;20046;-50
2023/07/09 06:17:50;;;;;;;3.28;1.63;;;;;;;29.06;68.67;99084.47;5138229;28;20105;-54
2023/07/09 06:20:16;;;;;;;3.65;1.52;;;;;;;28.30;69.29;99072.31;5138191;27;20468;-54
2023/07/09 06:22:42;;;;;;;2.28;1.63;;;;;;;28.70;68.36;99082.16;5138479;27;20087;-57
2023/07/09 06:25:08;;;;;;;3.85;1.98;;;;;;;29.05;67.38;99090.59;5138332;27;20108;-56
2023/07/09 06:27:34;;;;;;;3.28;1.67;;;;;;;29.26;66.92;99088.56;5138361;28;20054;-54
2023/07/09 06:30:01;;;;;;;1.75;1.63;;;;;;;28.73;68.77;99084.00;5138231;28;20309;-56
2023/07/09 06:32:27;;;;;;;2.15;1.80;;;;;;;28.28;70.07;99081.25;5138476;28;20106;-54
2023/07/09 06:34:53;;;;;;;2.38;1.80;;;;;;;28.76;68.33;99080.97;5137983;28;20051;-57
2023/07/09 06:37:19;;;;;;;3.38;1.60;;;;;;;28.58;69.32;99070.69;5138321;28;20089;-57
2023/07/09 06:39:45;;;;;;;1.85;1.70;;;;;;;28.69;67.83;99072.13;5137956;28;20082;-56
2023/07/09 06:42:11;;;;;;;2.33;1.30;;;;;;;29.41;66.33;99077.94;5138312;28;20062;-54
2023/07/09 06:44:37;;;;;;;1.63;1.30;;;;;;;29.70;64.58;99074.19;5137822;28;20051;-56
2023/07/09 06:47:04;;;;;;;2.78;1.17;;;;;;;30.04;61.71;99079.38;5138080;28;20362;-53
2023/07/09 06:49:30;;;;;;;2.78;1.10;;;;;;;30.12;60.79;99075.56;5137982;28;20043;-56
2023/07/09 06:51:56;;;;;;;2.13;1.33;;;;;;;29.90;59.49;99070.50;5137629;28;20469;-58
2023/07/09 06:54:22;;;;;;;2.05;1.45;;;;;;;30.23;59.33;99078.53;5137963;28;20101;-58
2023/07/09 06:56:48;;;;;;;1.50;1.40;;;;;;;30.26;59.06;99082.41;5137865;28;20069;-57
2023/07/09 06:59:14;;;;;;;2.55;1.30;;;;;;;29.73;59.71;99069.59;5137949;28;20134;-54
2023/07/09 07:01:40;;;;;;;2.15;1.23;;;;;;;28.88;61.35;99081.13;5137514;27;20141;-52
2023/07/09 07:04:06;;;;;;;1.42;1.33;;;;;;;28.06;63.23;99076.03;5137144;28;20138;-51
2023/07/09 07:06:32;;;;;;;1.40;1.30;;;;;;;28.58;60.94;99076.34;5137347;28;20047;-51
2023/07/09 07:08:58;;;;;;;1.10;1.00;;;;;;;28.65;60.84;99071.56;5137894;28;20093;-50
2023/07/09 07:11:29;;;;;;;4.05;1.05;;;;;;;29.39;59.15;99076.88;5137311;28;20134;-55
2023/07/09 07:13:55;;;;;;;1.35;1.25;;;;;;;28.95;59.81;99069.41;5137398;28;20108;-52
2023/07/09 07:16:21;;;;;;;3.10;1.17;;;;;;;28.58;60.56;99069.94;5137353;28;20378;-49
2023/07/09 07:18:47;;;;;;;0.98;0.98;;;;;;;28.77;60.35;99071.22;5137595;28;20192;-58
2023/07/09 07:21:14;;;;;;;1.80;1.17;;;;;;;28.44;60.97;99073.56;5137678;28;20480;-57
2023/07/09 07:23:40;;;;;;;1.52;1.23;;;;;;;29.75;58.40;99078.31;5137523;28;20154;-58
2023/07/09 07:26:06;;;;;;;3.17;1.40;;;;;;;29.55;57.81;99070.63;5137390;28;20138;-58
2023/07/09 07:28:34;;;;;;;1.45;1.00;;;;;;;29.69;57.83;99064.16;5137385;28;20147;-58
2023/07/09 07:31:01;;;;;;;2.40;1.08;;;;;;;28.89;61.15;99066.53;5137561;27;20047;-56
2023/07/09 07:33:27;;;;;;;3.80;1.27;;;;;;;29.37;60.69;99068.16;5137281;28;20051;-56
2023/07/09 07:35:53;;;;;;;2.75;1.20;;;;;;;29.03;61.04;99065.69;5137487;28;20069;-57
2023/07/09 07:38:20;;;;;;;2.03;1.00;;;;;;;29.13;60.75;99057.88;5137065;28;20047;-60
2023/07/09 07:40:46;;;;;;;3.90;1.25;;;;;;;29.50;60.31;99058.03;5137594;28;20054;-59
2023/07/09 07:43:11;;;;;;;2.47;1.13;;;;;;;29.70;59.50;99054.41;5137110;28;20078;-58
2023/07/09 07:45:40;;;;;;;4.13;1.10;;;;;;;29.99;59.03;99061.88;5137560;28;20412;-54
2023/07/09 07:48:06;;;;;;;2.10;1.10;;;;;;;29.42;59.10;99051.25;5136988;28;20439;-59
2023/07/09 07:50:32;;;;;;;2.45;1.25;;;;;;;29.02;61.82;99061.34;5137210;28;20055;-58
2023/07/09 07:52:58;;;;;;;1.45;1.08;;;;;;;29.85;60.91;99050.66;5137130;28;20108;-56
2023/07/09 07:55:25;;;;;;;1.65;1.40;;;;;;;30.52;58.82;99053.25;5137170;28;20078;-53
2023/07/09 07:57:50;;;;;;;1.25;1.00;;;;;;;30.90;58.62;99049.91;5137187;28;20103;-57
2023/07/09 08:00:17;;;;;;;2.45;1.25;;;;;;;31.24;57.24;99052.09;5137011;28;20055;-54
2023/07/09 08:02:43;;;;;;;1.88;1.13;;;;;;;30.94;57.54;99046.81;5137271;28;20389;-51
2023/07/09 08:05:09;;;;;;;1.58;1.10;;;;;;;30.76;57.31;99044.38;5136772;28;20141;-53
2023/07/09 08:07:35;;;;;;;1.30;1.20;;;;;;;30.68;57.83;99049.75;5137049;28;20113;-57
2023/07/09 08:10:01;;;;;;;1.20;1.10;;;;;;;30.60;57.48;99054.34;5136768;28;20416;-57
2023/07/09 08:12:28;;;;;;;2.08;1.00;;;;;;;29.85;58.78;99050.66;5136545;27;20139;-56
2023/07/09 08:14:53;;;;;;;1.35;1.25;;;;;;;30.15;58.69;99037.81;5139292;27;20141;-58
2023/07/09 08:17:19;;;;;;;3.38;1.17;;;;;;;30.95;58.60;99045.53;5140487;28;20134;-56
2023/07/09 08:19:47;;;;;;;2.58;1.20;;;;;;;31.09;56.89;99046.59;5140250;28;20508;-54
2023/07/09 08:22:13;;;;;;;2.17;1.20;;;;;;;30.67;55.99;99042.56;5140325;28;20367;-57
2023/07/09 08:24:39;;;;;;;2.00;1.20;;;;;;;30.43;56.49;99045.75;5140514;28;20138;-52
2023/07/09 08:27:06;;;;;;;1.70;1.25;;;;;;;30.42;56.67;99042.16;5139981;28;20058;-50
2023/07/09 08:29:33;;;;;;;1.73;1.30;;;;;;;30.75;55.93;99040.78;5140317;27;20059;-53
2023/07/09 08:31:59;;;;;;;2.03;1.50;;;;;;;30.70;55.60;99039.47;5140158;28;20051;-51
2023/07/09 08:34:25;;;;;;;3.72;1.40;;;;;;;30.03;56.28;99044.66;5140332;28;20345;-51
2023/07/09 08:36:51;;;;;;;5.65;1.40;;;;;;;30.07;57.76;99047.25;5139909;28;20047;-56
2023/07/09 08:39:17;;;;;;;1.60;1.50;;;;;;;29.65;57.60;99040.22;5140356;28;20055;-58
2023/07/09 08:41:47;;;;;;;3.05;1.30;;;;;;;30.42;56.46;99044.19;5139869;28;20051;-56
2023/07/09 08:44:56;;;;;;;3.40;1.50;;;;;;;29.44;58.88;99031.00;5140215;28;20395;-52
2023/07/09 08:47:29;;;;;;;3.25;1.38;;;;;;;29.58;60.35;99029.34;5140070;28;20087;-56
2023/07/09 08:49:59;;;;;;;1.83;1.38;;;;;;;29.67;59.32;99037.69;5139886;27;20111;-54
2023/07/09 08:52:30;;;;;;;2.63;1.42;;;;;;;30.30;57.55;99026.38;5140188;27;20057;-49
2023/07/09 08:54:59;;;;;;;2.20;1.48;;;;;;;31.00;57.92;99019.31;5139733;28;20043;-56
2023/07/09 08:57:27;;;;;;;1.85;1.60;;;;;;;31.29;55.79;99020.97;5140193;28;20138;-50
2023/07/09 09:00:00;;;;;;;2.80;1.40;;;;;;;31.14;55.80;99023.22;5139645;28;20058;-54
2023/07/09 09:02:33;;;;;;;4.10;1.58;;;;;;;31.77;54.43;99019.25;5139725;28;20061;-52
2023/07/09 09:04:59;;;;;;;3.43;1.20;;;;;;;32.29;53.34;99018.72;5139863;28;20047;-53
2023/07/09 09:07:38;;;;;;;1.92;1.38;;;;;;;31.65;53.92;99015.63;5139410;27;20429;-54
2023/07/09 09:10:05;;;;;;;1.40;1.30;;;;;;;32.09;54.41;99012.06;5139858;28;20058;-57
2023/07/09 09:12:38;;;;;;;1.50;1.40;;;;;;;31.15;54.07;99011.38;5139496;28;20488;-56
2023/07/09 09:15:13;;;;;;;1.42;1.25;;;;;;;30.93;54.42;99006.44;5139827;27;20058;-52
2023/07/09 09:17:41;;;;;;;1.48;1.38;;;;;;;31.03;53.88;99006.22;5139314;28;20055;-50
2023/07/09 09:20:12;;;;;;;3.40;1.52;;;;;;;31.82;53.85;99015.63;5139724;28;20129;-57
2023/07/09 09:22:44;;;;;;;1.60;1.40;;;;;;;31.18;54.22;99001.09;5139517;27;20134;-57
2023/07/09 09:25:20;;;;;;;1.58;1.30;;;;;;;31.28;53.00;99010.91;5138856;27;20403;-51
2023/07/09 09:27:46;;;;;;;2.35;1.30;;;;;;;31.29;53.79;99003.97;5139498;28;20367;-58
2023/07/09 09:30:14;;;;;;;2.10;1.50;;;;;;;30.71;54.33;98997.81;5139247;28;20051;-56
2023/07/09 09:32:43;;;;;;;1.15;1.10;;;;;;;30.15;55.14;98998.22;5139563;27;20051;-56
2023/07/09 09:35:14;;;;;;;1.55;1.40;;;;;;;30.06;55.39;99001.28;5139213;28;20115;-51
2023/07/09 09:37:40;;;;;;;3.47;1.40;;;;;;;30.52;54.57;98994.63;5139372;28;20468;-51
2023/07/09 09:40:09;;;;;;;1.60;1.50;;;;;;;29.92;55.26;98996.53;5138990;28;20495;-55
2023/07/09 09:42:35;;;;;;;2.25;1.52;;;;;;;29.89;55.48;98991.88;5139446;28;20053;-57
2023/07/09 09:45:02;;;;;;;2.15;1.45;;;;;;;29.30;57.10;98995.94;5139187;28;20047;-57
2023/07/09 09:47:28;;;;;;;2.05;1.65;;;;;;;30.19;55.53;98998.03;5139061;28;20055;-55
2023/07/09 09:49:54;;;;;;;1.50;1.40;;;;;;;30.24;55.44;98995.25;5138897;28;20047;-59
2023/07/09 09:52:29;;;;;;;2.30;1.80;;;;;;;29.99;55.73;98990.41;5138783;28;20138;-55
2023/07/09 09:55:02;;;;;;;1.80;1.70;;;;;;;30.20;55.16;98991.88;5139175;28;20062;-56
2023/07/09 09:57:28;;;;;;;2.85;1.40;;;;;;;30.27;54.94;98999.13;5138796;28;20120;-56
2023/07/09 09:59:55;;;;;;;1.95;1.67;;;;;;;30.51;54.14;98981.75;5139207;28;20358;-54
2023/07/09 10:02:23;;;;;;;1.65;1.50;;;;;;;30.00;55.47;98987.09;5138629;27;20142;-58
2023/07/09 10:04:50;;;;;;;3.53;1.70;;;;;;;29.35;57.18;98985.97;5139010;27;20043;-58
2023/07/09 10:07:23;;;;;;;2.15;1.58;;;;;;;29.60;56.03;98981.63;5138279;28;20138;-55
2023/07/09 10:09:52;;;;;;;4.55;1.90;;;;;;;30.54;55.27;98989.25;5138513;28;20137;-54
2023/07/09 10:12:32;;;;;;;7.35;1.85;;;;;;;30.34;54.95;98990.16;5138751;28;20415;-49
2023/07/09 10:15:06;;;;;;;2.67;1.67;;;;;;;30.34;55.51;98986.56;5138536;28;20090;-53
2023/07/09 10:17:37;;;;;;;4.18;1.67;;;;;;;30.83;54.03;98988.13;5138737;28;20057;-57
2023/07/09 10:20:09;;;;;;;3.28;1.67;;;;;;;30.46;54.46;98976.88;5138213;28;20412;-52
2023/07/09 10:22:42;;;;;;;2.28;1.80;;;;;;;29.22;55.80;98975.84;5138708;28;20047;-53
2023/07/09 10:25:19;;;;;;;1.98;1.75;;;;;;;28.95;57.90;98973.47;5138204;28;20062;-52
2023/07/09 10:28:01;;;;;;;3.00;2.20;;;;;;;29.63;55.60;98984.22;5138087;28;20047;-57
2023/07/09 10:30:46;;;;;;;4.50;1.83;;;;;;;29.84;54.34;98984.91;5138244;28;20400;-52
2023/07/09 10:33:19;;;;;;;3.47;1.88;;;;;;;30.14;53.44;98976.91;5137957;28;20503;-51
2023/07/09 10:35:56;;;;;;;3.22;1.77;;;;;;;29.74;54.58;98981.50;5138459;27;20054;-57
2023/07/09 10:38:34;;;;;;;1.85;1.75;;;;;;;29.14;54.99;98982.44;5136717;27;20421;-54
2023/07/09 10:41:05;;;;;;;1.65;1.55;;;;;;;28.58;55.53;98977.63;5138539;28;20054;-53
2023/07/09 10:43:36;;;;;;;2.45;1.80;;;;;;;28.81;55.70;98966.63;5138242;28;20051;-49
2023/07/09 10:46:06;;;;;;;5.00;1.90;;;;;;;29.02;55.63;98968.22;5138123;28;20365;-51
2023/07/09 10:48:37;;;;;;;7.93;2.45;;;;;;;28.24;57.41;98975.59;5138025;28;20047;-50
2023/07/09 10:51:12;;;;;;;3.95;1.67;;;;;;;28.15;57.75;98976.50;5137922;27;20188;-50
2023/07/09 10:53:44;;;;;;;3.40;1.90;;;;;;;28.59;57.00;98967.94;5138236;28;20461;-58
2023/07/09 10:56:14;;;;;;;2.83;1.90;;;;;;;29.25;55.69;98966.38;5137883;27;20137;-52
2023/07/09 10:58:46;;;;;;;2.00;1.80;;;;;;;28.95;56.60;98965.00;5138226;27;20059;-57
2023/07/09 11:01:15;;;;;;;1.93;1.43;;;;;;;28.33;56.01;98961.41;5137735;28;20047;-54
2023/07/09 11:03:48;;;;;;;8.88;2.40;;;;;;;26.90;59.35;98969.19;5137614;28;20058;-52
2023/07/09 11:06:20;;;;;;;1.80;1.60;;;;;;;27.47;59.66;98968.22;5137801;28;20111;-56
2023/07/09 11:08:49;;;;;;;8.13;1.88;;;;;;;27.08;61.09;98966.22;5137657;28;20134;-58
2023/07/09 11:11:25;;;;;;;5.25;2.10;;;;;;;27.53;61.04;98972.69;5137580;28;20051;-58
2023/07/09 11:13:57;;;;;;;3.85;1.98;;;;;;;27.58;60.25;98963.53;5137532;28;20438;-58
2023/07/09 11:16:28;;;;;;;2.63;2.17;;;;;;;27.46;60.43;98950.56;5137820;28;20062;-56
2023/07/09 11:18:58;;;;;;;2.83;1.92;;;;;;;27.44;61.20;98953.84;5137438;28;20129;-56
2023/07/09 11:21:25;;;;;;;4.55;1.70;;;;;;;27.38;61.13;98963.44;5137860;28;20047;-55
2023/07/09 11:23:54;;;;;;;1.83;1.70;;;;;;;27.33;61.17;98947.25;5137244;28;20047;-51
2023/07/09 11:26:25;;;;;;;2.75;1.77;;;;;;;27.50;60.95;98950.38;5137475;28;20047;-56
2023/07/09 11:28:54;;;;;;;3.80;2.13;;;;;;;27.33;62.48;98948.03;5137545;28;20055;-54
2023/07/09 11:31:24;;;;;;;11.10;2.08;;;;;;;26.80;64.67;98942.41;5137244;28;20413;-54